createdAt,value
2019-06-27T03:27:56.837Z,13.40
2019-06-27T03:28:56.837Z,16.90
2019-06-27T03:29:57.588Z,21.30
2019-06-27T03:30:57.540Z,18.70
2019-06-27T03:34:12.607Z,19.50
2019-06-27T03:35:12.216Z,17.80
2019-06-27T03:36:11.737Z,17.60
2019-06-27T03:37:13.025Z,16.50
2019-06-27T03:41:12.242Z,16.20
2019-06-27T03:44:57.309Z,17.80
2019-06-27T03:45:56.189Z,17.40
2019-06-27T03:46:56.516Z,16.80
2019-06-27T03:47:56.999Z,15.40
2019-06-27T03:51:01.423Z,16.90
2019-06-27T03:52:01.353Z,20.00
2019-06-27T03:53:01.234Z,16.10
2019-06-27T03:54:01.662Z,14.30
2019-06-27T03:55:01.423Z,17.10
2019-06-27T03:56:00.883Z,17.00
2019-06-27T03:57:01.217Z,16.50
2019-06-27T03:58:01.164Z,16.50
2019-06-27T03:59:12.346Z,17.50
2019-06-27T04:00:00.310Z,18.80
2019-06-27T04:01:00.224Z,15.90
2019-06-27T04:02:00.205Z,19.80
2019-06-27T04:03:00.278Z,16.70
2019-06-27T04:04:00.240Z,17.40
2019-06-27T04:05:00.254Z,18.80
2019-06-27T04:06:00.312Z,17.70
2019-06-27T04:07:00.370Z,21.80
2019-06-27T04:08:00.339Z,19.50
2019-06-27T04:09:00.389Z,21.80
2019-06-27T04:10:00.350Z,24.20
2019-06-27T04:11:00.378Z,19.50
2019-06-27T04:12:00.410Z,22.10
2019-06-27T04:13:00.409Z,21.40
2019-06-27T04:14:00.482Z,23.40
2019-06-27T04:15:00.536Z,21.10
2019-06-27T04:16:00.458Z,18.30
2019-06-27T04:17:00.478Z,22.30
2019-06-27T04:18:00.504Z,22.90
2019-06-27T04:19:00.568Z,21.70
2019-06-27T04:20:00.598Z,22.20
2019-06-27T04:21:00.575Z,21.60
2019-06-27T04:22:00.586Z,25.60
2019-06-27T04:23:00.620Z,21.20
2019-06-27T04:24:00.630Z,23.80
2019-06-27T04:25:00.713Z,24.60
2019-06-27T04:26:00.644Z,23.40
2019-06-27T04:27:00.669Z,24.80
2019-06-27T04:28:00.949Z,25.10
2019-06-27T04:29:00.699Z,23.20
2019-06-27T04:30:00.780Z,24.10
2019-06-27T04:31:00.826Z,23.70
2019-06-27T04:32:00.759Z,23.10
2019-06-27T04:33:00.821Z,23.30
2019-06-27T04:34:00.819Z,26.20
2019-06-27T04:35:00.814Z,20.20
2019-06-27T04:36:00.857Z,19.90
2019-06-27T04:37:00.850Z,18.30
2019-06-27T04:38:00.920Z,21.70
2019-06-27T04:39:00.975Z,20.00
2019-06-27T04:40:00.906Z,20.10
2019-06-27T04:41:00.939Z,19.60
2019-06-27T04:42:01.035Z,19.40
2019-06-27T04:43:05.329Z,20.40
2019-06-27T04:44:01.002Z,16.90
2019-06-27T04:45:01.003Z,14.10
2019-06-27T04:46:01.020Z,15.50
2019-06-27T04:47:01.089Z,18.10
2019-06-27T04:48:01.105Z,16.90
2019-06-27T04:49:01.081Z,18.60
2019-06-27T04:50:01.092Z,18.80
2019-06-27T04:51:01.119Z,20.30
2019-06-27T04:52:01.142Z,20.20
2019-06-27T04:53:01.224Z,19.90
2019-06-27T04:54:01.173Z,17.50
2019-06-27T04:55:03.579Z,16.20
2019-06-27T04:56:01.286Z,16.70
2019-06-27T04:57:01.258Z,16.30
2019-06-27T04:58:01.258Z,19.00
2019-06-27T04:59:01.348Z,17.00
2019-06-27T05:00:01.285Z,17.60
2019-06-27T05:01:01.316Z,17.10
2019-06-27T05:02:01.326Z,16.70
2019-06-27T05:03:01.345Z,17.00
2019-06-27T05:04:01.414Z,16.60
2019-06-27T05:05:01.376Z,15.90
2019-06-27T05:06:01.465Z,18.10
2019-06-27T05:07:01.520Z,18.70
2019-06-27T05:08:01.449Z,15.20
2019-06-27T05:09:01.489Z,15.60
2019-06-27T05:10:01.480Z,17.40
2019-06-27T05:11:01.500Z,17.00
2019-06-27T05:12:01.534Z,15.20
2019-06-27T05:13:01.624Z,14.80
2019-06-27T05:14:01.552Z,16.70
2019-06-27T05:15:01.573Z,17.80
2019-06-27T05:16:01.601Z,17.40
2019-06-27T05:17:01.623Z,16.90
2019-06-27T05:18:01.635Z,16.60
2019-06-27T05:19:01.755Z,16.80
2019-06-27T05:20:03.232Z,17.90
2019-06-27T05:21:01.701Z,18.00
2019-06-27T05:22:01.704Z,16.60
2019-06-27T05:23:01.783Z,18.80
2019-06-27T05:24:01.745Z,17.40
2019-06-27T05:25:01.792Z,19.00
2019-06-27T05:26:01.851Z,18.00
2019-06-27T05:27:01.805Z,20.00
2019-06-27T05:28:01.846Z,19.60
2019-06-27T05:29:01.883Z,17.50
2019-06-27T05:30:09.175Z,19.80
2019-06-27T05:31:01.944Z,18.30
2019-06-27T05:32:01.906Z,19.10
2019-06-27T05:33:01.980Z,16.30
2019-06-27T05:34:02.021Z,18.90
2019-06-27T05:35:02.009Z,18.70
2019-06-27T05:36:02.644Z,19.20
2019-06-27T05:37:02.023Z,18.00
2019-06-27T05:38:02.014Z,18.90
2019-06-27T05:39:02.080Z,19.50
2019-06-27T05:40:02.176Z,20.00
2019-06-27T05:41:02.142Z,18.80
2019-06-27T05:42:02.239Z,20.10
2019-06-27T05:43:02.174Z,18.40
2019-06-27T05:44:02.131Z,20.00
2019-06-27T05:45:02.158Z,18.00
2019-06-27T05:46:02.266Z,19.00
2019-06-27T05:47:02.418Z,19.00
2019-06-27T05:48:02.257Z,18.40
2019-06-27T05:49:02.391Z,17.80
2019-06-27T05:50:02.370Z,17.60
2019-06-27T05:51:02.481Z,18.20
2019-06-27T05:52:02.387Z,18.30
2019-06-27T05:53:04.115Z,17.50
2019-06-27T05:54:02.383Z,15.10
2019-06-27T05:55:02.469Z,17.10
2019-06-27T05:56:02.613Z,17.50
2019-06-27T05:57:02.458Z,22.70
2019-06-27T05:58:02.475Z,17.40
2019-06-27T05:59:02.543Z,16.80
2019-06-27T06:00:02.487Z,19.20
2019-06-27T06:01:02.488Z,16.30
2019-06-27T06:02:02.538Z,16.40
2019-06-27T06:03:02.580Z,18.10
2019-06-27T06:04:02.565Z,16.90
2019-06-27T06:05:02.607Z,16.80
2019-06-27T06:06:02.579Z,14.80
2019-06-27T06:07:02.870Z,18.10
2019-06-27T06:08:03.337Z,17.90
2019-06-27T06:09:05.309Z,18.80
2019-06-27T06:10:02.696Z,21.00
2019-06-27T06:11:02.743Z,19.50
2019-06-27T06:12:02.719Z,19.60
2019-06-27T06:13:02.800Z,22.00
2019-06-27T06:14:02.790Z,19.70
2019-06-27T06:15:02.859Z,20.90
2019-06-27T06:16:02.803Z,19.10
2019-06-27T06:17:03.714Z,14.50
2019-06-27T06:18:02.895Z,18.20
2019-06-27T06:19:02.862Z,14.00
2019-06-27T06:20:02.947Z,13.30
2019-06-27T06:21:03.640Z,13.70
2019-06-27T06:22:03.126Z,13.40
2019-06-27T06:23:03.499Z,14.90
2019-06-27T06:24:02.966Z,13.20
2019-06-27T06:25:03.115Z,12.40
2019-06-27T06:26:03.454Z,13.10
2019-06-27T06:27:03.955Z,13.50
2019-06-27T06:28:03.056Z,14.40
2019-06-27T06:29:03.862Z,13.90
2019-06-27T06:30:03.264Z,14.10
2019-06-27T06:31:03.287Z,17.90
2019-06-27T06:32:06.165Z,16.10
2019-06-27T06:33:03.500Z,14.30
2019-06-27T06:34:03.273Z,15.80
2019-06-27T06:35:03.269Z,15.90
2019-06-27T06:36:03.255Z,13.40
2019-06-27T06:37:03.337Z,14.00
2019-06-27T06:38:03.309Z,16.40
2019-06-27T06:39:03.351Z,15.40
2019-06-27T06:40:03.448Z,18.90
2019-06-27T06:41:04.049Z,17.60
2019-06-27T06:46:28.859Z,15.90
2019-06-27T06:48:27.292Z,13.70
2019-06-27T06:49:25.997Z,15.60
2019-06-27T06:50:24.904Z,14.80
2019-06-27T06:52:28.056Z,13.80
2019-06-27T06:53:37.695Z,14.70
2019-06-27T11:01:22.242Z,7.60
2019-06-27T11:02:08.162Z,6.20
2019-06-27T11:03:15.327Z,7.00
